createdAt,value
2022-08-26T00:00:18.759Z,22.51
2022-08-26T00:01:18.729Z,22.54
2022-08-26T00:02:20.699Z,22.55
2022-08-26T00:03:18.690Z,22.55
2022-08-26T00:04:18.758Z,22.55
2022-08-26T00:05:18.701Z,22.57
2022-08-26T00:06:20.797Z,22.55
2022-08-26T00:07:18.643Z,22.55
2022-08-26T00:08:18.652Z,22.57
2022-08-26T00:09:18.637Z,22.59
2022-08-26T00:10:18.637Z,22.60
2022-08-26T00:11:26.802Z,22.60
2022-08-26T00:12:20.545Z,22.62
2022-08-26T00:13:19.722Z,22.65
2022-08-26T00:14:18.573Z,22.69
2022-08-26T00:15:18.560Z,22.70
2022-08-26T00:16:18.587Z,22.72
2022-08-26T00:17:18.571Z,22.73
2022-08-26T00:18:22.168Z,22.75
2022-08-26T00:19:18.518Z,22.76
2022-08-26T00:20:18.506Z,22.75
2022-08-26T00:21:18.510Z,22.75
2022-08-26T00:22:20.227Z,22.76
2022-08-26T00:23:18.487Z,22.73
2022-08-26T00:24:18.464Z,22.75
2022-08-26T00:25:18.459Z,22.76
2022-08-26T00:26:18.428Z,22.75
2022-08-26T00:27:18.453Z,22.75
2022-08-26T00:28:18.988Z,22.78
2022-08-26T00:29:18.401Z,22.78
2022-08-26T00:30:22.841Z,22.80
2022-08-26T00:31:19.461Z,22.80
2022-08-26T00:32:18.399Z,22.80
2022-08-26T00:33:18.389Z,22.83
2022-08-26T00:34:19.283Z,22.81
2022-08-26T00:35:18.336Z,22.84
2022-08-26T00:36:19.921Z,22.85
2022-08-26T00:37:18.324Z,22.85
2022-08-26T00:38:18.322Z,22.85
2022-08-26T00:39:18.322Z,22.84
2022-08-26T00:40:18.413Z,22.84
2022-08-26T00:41:18.275Z,22.83
2022-08-26T00:42:18.285Z,22.83
2022-08-26T00:43:18.253Z,22.81
2022-08-26T00:44:18.274Z,22.83
2022-08-26T00:45:18.255Z,22.84
2022-08-26T00:46:18.243Z,22.85
2022-08-26T00:47:18.235Z,22.87
2022-08-26T00:48:18.184Z,22.87
2022-08-26T00:49:18.199Z,22.88
2022-08-26T00:50:18.201Z,22.88
2022-08-26T00:51:18.172Z,22.87
2022-08-26T00:52:18.159Z,22.87
2022-08-26T00:53:18.139Z,22.88
2022-08-26T00:54:18.139Z,22.84
2022-08-26T00:55:20.385Z,22.83
2022-08-26T00:56:18.145Z,22.83
2022-08-26T00:57:18.103Z,22.83
2022-08-26T00:58:18.079Z,22.84
2022-08-26T00:59:18.093Z,22.83
2022-08-26T01:00:18.062Z,22.81
2022-08-26T01:01:18.074Z,22.83
2022-08-26T01:02:21.280Z,22.80
2022-08-26T01:03:18.030Z,22.78
2022-08-26T01:04:18.030Z,22.78
2022-08-26T01:05:18.037Z,22.76
2022-08-26T01:06:18.023Z,22.76
2022-08-26T01:07:18.026Z,22.73
2022-08-26T01:08:17.983Z,22.72
2022-08-26T01:09:17.984Z,22.68
2022-08-26T01:10:17.968Z,22.68
2022-08-26T01:11:17.963Z,22.65
2022-08-26T01:12:21.945Z,22.63
2022-08-26T01:13:17.944Z,22.62
2022-08-26T01:14:17.902Z,22.60
2022-08-26T01:15:17.938Z,22.62
2022-08-26T01:16:17.959Z,22.63
2022-08-26T01:17:17.876Z,22.62
2022-08-26T01:18:17.865Z,22.60
2022-08-26T01:19:17.977Z,22.60
2022-08-26T01:20:18.799Z,22.57
2022-08-26T01:21:17.827Z,22.57
2022-08-26T01:22:17.827Z,22.55
2022-08-26T01:23:17.813Z,22.53
2022-08-26T01:24:17.819Z,22.53
2022-08-26T01:25:17.782Z,22.51
2022-08-26T01:26:20.008Z,22.53
2022-08-26T01:27:17.774Z,22.53
2022-08-26T01:28:17.748Z,22.53
2022-08-26T01:29:17.790Z,22.51
2022-08-26T01:30:17.738Z,22.50
2022-08-26T01:31:17.757Z,22.48
2022-08-26T01:32:17.716Z,22.47
2022-08-26T01:33:17.754Z,22.45
2022-08-26T01:34:17.712Z,22.43
2022-08-26T01:35:17.681Z,22.43
2022-08-26T01:36:17.676Z,22.41
2022-08-26T01:37:17.682Z,22.41
2022-08-26T01:38:17.655Z,22.41
2022-08-26T01:39:17.624Z,22.43
2022-08-26T01:40:17.692Z,22.39
2022-08-26T01:41:19.935Z,22.39
2022-08-26T01:42:18.641Z,22.39
2022-08-26T01:43:17.604Z,22.35
2022-08-26T01:44:17.576Z,22.35
2022-08-26T01:45:17.568Z,22.33
2022-08-26T01:46:17.569Z,22.32
2022-08-26T01:47:17.545Z,22.32
2022-08-26T01:48:17.567Z,22.32
2022-08-26T01:49:17.507Z,22.32
2022-08-26T01:50:18.092Z,22.30
2022-08-26T01:51:18.504Z,22.28
2022-08-26T01:52:17.509Z,22.28
2022-08-26T01:53:17.488Z,22.28
2022-08-26T01:54:17.464Z,22.29
2022-08-26T01:55:32.248Z,22.29
2022-08-26T01:56:18.450Z,22.29
2022-08-26T01:57:17.420Z,22.28
2022-08-26T01:58:17.412Z,22.25
2022-08-26T01:59:17.410Z,22.23
2022-08-26T02:00:17.414Z,22.20
2022-08-26T02:01:17.480Z,22.17
2022-08-26T02:02:17.403Z,22.14
2022-08-26T02:03:17.460Z,22.15
2022-08-26T02:04:17.414Z,22.11
2022-08-26T02:05:17.341Z,22.10
2022-08-26T02:06:17.323Z,22.07
2022-08-26T02:07:17.353Z,22.06
2022-08-26T02:08:17.309Z,22.06
2022-08-26T02:09:18.294Z,22.06
2022-08-26T02:10:17.279Z,22.04
2022-08-26T02:11:18.313Z,22.02
2022-08-26T02:12:17.260Z,22.00
2022-08-26T02:13:17.280Z,22.00
2022-08-26T02:14:17.246Z,21.99
2022-08-26T02:15:17.319Z,21.96
2022-08-26T02:16:17.296Z,21.93
2022-08-26T02:17:17.215Z,21.92
2022-08-26T02:18:17.209Z,21.91
2022-08-26T02:19:17.461Z,21.91
2022-08-26T02:20:17.191Z,21.89
2022-08-26T02:21:17.167Z,21.89
2022-08-26T02:22:17.169Z,21.89
2022-08-26T02:23:17.140Z,21.88
2022-08-26T02:24:17.133Z,21.85
2022-08-26T02:25:17.152Z,21.83
2022-08-26T02:26:17.922Z,21.82
2022-08-26T02:27:17.101Z,21.82
2022-08-26T02:28:17.089Z,21.82
2022-08-26T02:29:17.095Z,21.80
2022-08-26T02:30:17.349Z,21.82
2022-08-26T02:31:17.124Z,21.80
2022-08-26T02:32:18.550Z,21.82
2022-08-26T02:33:17.067Z,21.79
2022-08-26T02:34:17.049Z,21.76
2022-08-26T02:35:18.304Z,21.75
2022-08-26T02:36:17.029Z,21.76
2022-08-26T02:37:17.669Z,21.73
2022-08-26T02:38:16.975Z,21.73
2022-08-26T02:39:22.023Z,21.73
2022-08-26T02:40:18.037Z,21.73
2022-08-26T02:41:16.948Z,21.73
2022-08-26T02:42:16.961Z,21.75
2022-08-26T02:43:16.976Z,21.73
2022-08-26T02:44:16.934Z,21.72
2022-08-26T02:45:16.923Z,21.73
2022-08-26T02:46:21.486Z,21.75
2022-08-26T02:47:17.943Z,21.75
2022-08-26T02:48:16.889Z,21.75
2022-08-26T02:49:16.981Z,21.76
2022-08-26T02:50:16.844Z,21.76
2022-08-26T02:51:16.844Z,21.76
2022-08-26T02:52:16.827Z,21.75
2022-08-26T02:53:17.030Z,21.73
2022-08-26T02:54:17.809Z,21.72
2022-08-26T02:55:16.790Z,21.70
2022-08-26T02:56:16.786Z,21.70
2022-08-26T02:57:16.774Z,21.69
2022-08-26T02:58:16.780Z,21.69
2022-08-26T02:59:16.796Z,21.67
2022-08-26T03:00:16.738Z,21.70
2022-08-26T03:01:16.790Z,21.72
2022-08-26T03:02:16.808Z,21.72
2022-08-26T03:03:16.726Z,21.70
2022-08-26T03:04:16.690Z,21.72
2022-08-26T03:05:16.708Z,21.72
2022-08-26T03:06:16.687Z,21.73
2022-08-26T03:07:16.686Z,21.73
2022-08-26T03:08:16.655Z,21.75
2022-08-26T03:09:18.837Z,21.75
2022-08-26T03:10:16.673Z,21.76
2022-08-26T03:11:16.619Z,21.77
2022-08-26T03:12:16.646Z,21.77
2022-08-26T03:13:16.596Z,21.79
2022-08-26T03:14:16.586Z,21.77
2022-08-26T03:15:17.956Z,21.79
2022-08-26T03:16:16.628Z,21.77
2022-08-26T03:17:16.561Z,21.76
2022-08-26T03:18:16.578Z,21.77
2022-08-26T03:19:17.711Z,21.76
2022-08-26T03:20:17.294Z,21.75
2022-08-26T03:21:16.530Z,21.73
2022-08-26T03:22:16.512Z,21.72
2022-08-26T03:23:16.490Z,21.72
2022-08-26T03:24:16.500Z,21.69
2022-08-26T03:25:16.471Z,21.67
2022-08-26T03:26:16.450Z,21.69
2022-08-26T03:27:16.546Z,21.69
2022-08-26T03:28:16.439Z,21.69
2022-08-26T03:29:16.653Z,21.69
2022-08-26T03:30:16.439Z,21.67
2022-08-26T03:31:16.470Z,21.64
2022-08-26T03:32:16.395Z,21.64
2022-08-26T03:33:16.384Z,21.62
2022-08-26T03:34:16.365Z,21.62
2022-08-26T03:35:16.390Z,21.62
2022-08-26T03:36:16.385Z,21.62
2022-08-26T03:37:16.335Z,21.62
2022-08-26T03:38:16.346Z,21.61
2022-08-26T03:39:16.325Z,21.58
2022-08-26T03:40:16.421Z,21.55
2022-08-26T03:41:16.296Z,21.55
2022-08-26T03:42:16.281Z,21.57
2022-08-26T03:43:16.329Z,21.55
2022-08-26T03:44:16.264Z,21.55
2022-08-26T03:45:16.256Z,21.52
2022-08-26T03:46:16.298Z,21.51
2022-08-26T03:47:16.246Z,21.50
2022-08-26T03:48:16.229Z,21.46
2022-08-26T03:49:16.241Z,21.46
2022-08-26T03:50:16.198Z,21.46
2022-08-26T03:51:18.007Z,21.45
2022-08-26T03:52:16.161Z,21.45
2022-08-26T03:53:16.204Z,21.43
2022-08-26T03:54:16.179Z,21.43
2022-08-26T03:55:16.163Z,21.43
2022-08-26T03:56:16.143Z,21.42
2022-08-26T03:57:16.765Z,21.40
2022-08-26T03:58:16.112Z,21.40
2022-08-26T03:59:16.104Z,21.40
2022-08-26T04:00:18.371Z,21.40
2022-08-26T04:01:16.340Z,21.42
2022-08-26T04:02:16.073Z,21.43
2022-08-26T04:03:18.907Z,21.45
2022-08-26T04:04:16.033Z,21.45
2022-08-26T04:05:16.029Z,21.46
2022-08-26T04:06:16.016Z,21.46
2022-08-26T04:07:16.025Z,21.46
2022-08-26T04:08:15.996Z,21.43
2022-08-26T04:09:16.000Z,21.45
2022-08-26T04:10:15.965Z,21.43
2022-08-26T04:11:15.962Z,21.43
2022-08-26T04:12:16.008Z,21.45
2022-08-26T04:13:15.939Z,21.45
2022-08-26T04:14:17.630Z,21.45
2022-08-26T04:15:15.928Z,21.43
2022-08-26T04:16:15.959Z,21.43
2022-08-26T04:17:15.909Z,21.42
2022-08-26T04:18:15.931Z,21.42
2022-08-26T04:19:15.877Z,21.42
2022-08-26T04:20:16.263Z,21.43
2022-08-26T04:21:15.877Z,21.45
2022-08-26T04:22:15.840Z,21.45
2022-08-26T04:23:16.831Z,21.45
2022-08-26T04:24:15.854Z,21.45
2022-08-26T04:25:15.812Z,21.45
2022-08-26T04:26:15.795Z,21.42
2022-08-26T04:27:15.995Z,21.42
2022-08-26T04:28:15.774Z,21.40
2022-08-26T04:29:15.794Z,21.42
2022-08-26T04:30:15.787Z,21.45
2022-08-26T04:31:15.819Z,21.42
2022-08-26T04:32:15.754Z,21.42
2022-08-26T04:33:15.754Z,21.45
2022-08-26T04:34:15.711Z,21.46
2022-08-26T04:35:15.715Z,21.46
2022-08-26T04:36:15.690Z,21.48
2022-08-26T04:37:15.716Z,21.50
2022-08-26T04:38:15.672Z,21.50
2022-08-26T04:39:15.659Z,21.50
2022-08-26T04:40:15.734Z,21.50
2022-08-26T04:41:17.100Z,21.50
2022-08-26T04:42:18.862Z,21.50
2022-08-26T04:43:16.623Z,21.51
2022-08-26T04:44:15.601Z,21.52
2022-08-26T04:45:15.610Z,21.51
2022-08-26T04:46:15.663Z,21.50
2022-08-26T04:47:15.579Z,21.51
2022-08-26T04:48:16.933Z,21.48
2022-08-26T04:49:15.553Z,21.48
2022-08-26T04:50:15.586Z,21.46
2022-08-26T04:51:15.555Z,21.45
2022-08-26T04:52:15.544Z,21.45
2022-08-26T04:53:15.519Z,21.46
2022-08-26T04:54:16.398Z,21.48
2022-08-26T04:55:15.539Z,21.46
2022-08-26T04:56:15.508Z,21.48
2022-08-26T04:57:15.518Z,21.51
2022-08-26T04:58:15.527Z,21.52
2022-08-26T04:59:17.116Z,21.54
2022-08-26T05:00:15.477Z,21.54
2022-08-26T05:01:15.486Z,21.55
2022-08-26T05:02:15.414Z,21.55
2022-08-26T05:03:15.395Z,21.58
2022-08-26T05:04:16.290Z,21.58
2022-08-26T05:05:15.415Z,21.57
2022-08-26T05:06:15.395Z,21.57
2022-08-26T05:07:15.363Z,21.54
2022-08-26T05:08:15.361Z,21.54
2022-08-26T05:09:15.506Z,21.50
2022-08-26T05:10:15.339Z,21.50
2022-08-26T05:11:15.332Z,21.50
2022-08-26T05:12:15.331Z,21.50
2022-08-26T05:13:15.824Z,21.50
2022-08-26T05:14:15.293Z,21.50
2022-08-26T05:15:15.264Z,21.50
2022-08-26T05:16:15.280Z,21.50
2022-08-26T05:17:15.305Z,21.51
2022-08-26T05:18:15.242Z,21.52
2022-08-26T05:19:15.265Z,21.52
2022-08-26T05:20:15.243Z,21.51
2022-08-26T05:21:15.266Z,21.51
2022-08-26T05:22:15.186Z,21.51
2022-08-26T05:23:15.245Z,21.48
2022-08-26T05:24:15.190Z,21.48
2022-08-26T05:25:36.157Z,21.48
2022-08-26T05:26:15.205Z,21.48
2022-08-26T05:27:15.175Z,21.51
2022-08-26T05:28:15.163Z,21.50
2022-08-26T05:29:15.166Z,21.50
2022-08-26T05:30:15.107Z,21.46
2022-08-26T05:31:15.214Z,21.48
2022-08-26T05:32:15.097Z,21.45
2022-08-26T05:33:15.139Z,21.45
2022-08-26T05:34:15.099Z,21.48
2022-08-26T05:35:15.072Z,21.50
2022-08-26T05:36:15.044Z,21.51
2022-08-26T05:37:15.081Z,21.51
2022-08-26T05:38:15.060Z,21.55
2022-08-26T05:39:15.021Z,21.58
2022-08-26T05:40:15.096Z,21.60
2022-08-26T05:41:14.999Z,21.61
2022-08-26T05:42:14.990Z,21.64
2022-08-26T05:43:15.015Z,21.66
2022-08-26T05:44:14.960Z,21.67
2022-08-26T05:45:14.939Z,21.69
2022-08-26T05:46:14.972Z,21.73
2022-08-26T05:47:14.929Z,21.75
2022-08-26T05:48:14.930Z,21.75
2022-08-26T05:49:14.914Z,21.73
2022-08-26T05:50:14.911Z,21.75
2022-08-26T05:51:14.875Z,21.75
2022-08-26T05:52:14.882Z,21.76
2022-08-26T05:53:14.886Z,21.76
2022-08-26T05:54:14.906Z,21.73
2022-08-26T05:55:15.847Z,21.70
2022-08-26T05:56:14.833Z,21.72
2022-08-26T05:57:14.805Z,21.72
2022-08-26T05:58:14.825Z,21.72
2022-08-26T05:59:14.798Z,21.70
2022-08-26T06:00:14.810Z,21.66
2022-08-26T06:01:14.817Z,21.64
2022-08-26T06:02:14.797Z,21.62
2022-08-26T06:03:14.811Z,21.61
2022-08-26T06:04:14.747Z,21.58
2022-08-26T06:05:14.748Z,21.54
2022-08-26T06:06:14.707Z,21.52
2022-08-26T06:07:14.710Z,21.48
2022-08-26T06:08:14.692Z,21.48
2022-08-26T06:09:14.701Z,21.46
2022-08-26T06:10:31.575Z,21.45
2022-08-26T06:11:18.616Z,21.45
2022-08-26T06:12:14.648Z,21.46
2022-08-26T06:13:14.655Z,21.46
2022-08-26T06:14:14.639Z,21.50
2022-08-26T06:15:14.613Z,21.50
2022-08-26T06:16:14.812Z,21.54
2022-08-26T06:17:14.606Z,21.57
2022-08-26T06:18:14.590Z,21.61
2022-08-26T06:19:14.573Z,21.64
2022-08-26T06:20:14.564Z,21.66
2022-08-26T06:21:14.586Z,21.70
2022-08-26T06:22:14.545Z,21.70
2022-08-26T06:23:14.525Z,21.70
2022-08-26T06:24:14.542Z,21.69
2022-08-26T06:25:14.531Z,21.67
2022-08-26T06:26:14.507Z,21.64
2022-08-26T06:27:15.330Z,21.66
2022-08-26T06:28:14.483Z,21.66
2022-08-26T06:29:16.405Z,21.64
2022-08-26T06:30:15.455Z,21.66
2022-08-26T06:31:14.492Z,21.66
2022-08-26T06:32:14.444Z,21.64
2022-08-26T06:33:14.436Z,21.60
2022-08-26T06:34:14.413Z,21.61
2022-08-26T06:35:14.417Z,21.57
2022-08-26T06:36:14.388Z,21.55
2022-08-26T06:37:14.394Z,21.54
2022-08-26T06:38:14.378Z,21.52
2022-08-26T06:39:14.365Z,21.52
2022-08-26T06:40:14.414Z,21.51
2022-08-26T06:41:14.331Z,21.52
2022-08-26T06:42:14.370Z,21.52
2022-08-26T06:43:14.310Z,21.54
2022-08-26T06:44:14.299Z,21.55
2022-08-26T06:45:14.286Z,21.55
2022-08-26T06:46:14.318Z,21.55
2022-08-26T06:47:14.283Z,21.58
2022-08-26T06:48:14.250Z,21.58
2022-08-26T06:49:14.241Z,21.60
2022-08-26T06:50:14.246Z,21.61
2022-08-26T06:51:14.214Z,21.64
2022-08-26T06:52:14.240Z,21.67
2022-08-26T06:53:15.192Z,21.72
2022-08-26T06:54:14.182Z,21.73
2022-08-26T06:55:14.195Z,21.73
2022-08-26T06:56:14.192Z,21.70
2022-08-26T06:57:14.231Z,21.72
2022-08-26T06:58:14.149Z,21.72
2022-08-26T06:59:14.128Z,21.76
2022-08-26T07:00:14.150Z,21.79
2022-08-26T07:01:14.135Z,21.80
2022-08-26T07:02:14.144Z,21.83
2022-08-26T07:03:14.157Z,21.85
2022-08-26T07:04:14.101Z,21.88
2022-08-26T07:05:14.064Z,21.89
2022-08-26T07:06:14.076Z,21.89
2022-08-26T07:07:14.038Z,21.91
2022-08-26T07:08:14.036Z,21.92
2022-08-26T07:09:14.025Z,21.95
2022-08-26T07:10:14.043Z,21.95
2022-08-26T07:11:14.004Z,21.93
2022-08-26T07:12:14.003Z,21.91
2022-08-26T07:13:13.993Z,21.93
2022-08-26T07:14:13.980Z,21.91
2022-08-26T07:15:13.957Z,21.89
2022-08-26T07:16:13.990Z,21.92
2022-08-26T07:17:14.054Z,21.92
2022-08-26T07:18:13.947Z,21.93
2022-08-26T07:19:13.907Z,21.92
2022-08-26T07:20:13.936Z,21.92
2022-08-26T07:21:13.886Z,21.92
2022-08-26T07:22:13.908Z,21.91
2022-08-26T07:23:13.866Z,21.88
2022-08-26T07:24:13.857Z,21.83
2022-08-26T07:25:13.845Z,21.82
2022-08-26T07:26:13.834Z,21.77
2022-08-26T07:27:13.839Z,21.75
2022-08-26T07:28:13.805Z,21.75
2022-08-26T07:29:13.788Z,21.75
2022-08-26T07:30:14.802Z,21.73
2022-08-26T07:31:13.815Z,21.75
2022-08-26T07:32:13.799Z,21.75
2022-08-26T07:33:13.746Z,21.76
2022-08-26T07:34:13.755Z,21.77
2022-08-26T07:35:13.725Z,21.75
2022-08-26T07:36:13.728Z,21.73
2022-08-26T07:37:13.698Z,21.72
2022-08-26T07:38:13.753Z,21.72
2022-08-26T07:39:13.685Z,21.70
2022-08-26T07:40:13.724Z,21.70
2022-08-26T07:41:13.686Z,21.69
2022-08-26T07:42:13.690Z,21.70
2022-08-26T07:43:13.671Z,21.72
2022-08-26T07:44:13.650Z,21.73
2022-08-26T07:45:13.623Z,21.75
2022-08-26T07:46:16.470Z,21.77
2022-08-26T07:47:25.287Z,21.82
2022-08-26T07:48:14.597Z,21.83
2022-08-26T07:49:13.627Z,21.88
2022-08-26T07:50:13.584Z,21.85
2022-08-26T07:51:13.579Z,21.88
2022-08-26T07:52:13.561Z,21.89
2022-08-26T07:53:13.565Z,21.91
2022-08-26T07:54:13.535Z,21.92
2022-08-26T07:55:13.575Z,21.92
2022-08-26T07:56:13.514Z,21.92
2022-08-26T07:57:13.511Z,21.91
2022-08-26T07:58:13.483Z,21.89
2022-08-26T07:59:14.001Z,21.89
2022-08-26T08:00:13.458Z,21.89
2022-08-26T08:01:13.538Z,21.88
2022-08-26T08:02:13.473Z,21.91
2022-08-26T08:03:13.438Z,21.89
2022-08-26T08:04:13.419Z,21.92
2022-08-26T08:05:13.469Z,21.92
2022-08-26T08:06:13.391Z,21.93
2022-08-26T08:07:13.419Z,21.95
2022-08-26T08:08:26.222Z,21.93
2022-08-26T08:09:14.375Z,21.92
2022-08-26T08:10:13.351Z,21.93
2022-08-26T08:11:13.332Z,21.93
2022-08-26T08:12:13.979Z,21.93
2022-08-26T08:13:13.303Z,21.98
2022-08-26T08:14:13.337Z,22.00
2022-08-26T08:15:13.316Z,22.04
2022-08-26T08:16:13.288Z,22.04
2022-08-26T08:17:13.279Z,22.04
2022-08-26T08:18:15.386Z,22.04
2022-08-26T08:19:13.253Z,22.04
2022-08-26T08:20:13.257Z,22.06
2022-08-26T08:21:21.690Z,22.08
2022-08-26T08:22:17.546Z,22.11
2022-08-26T08:23:14.195Z,22.14
2022-08-26T08:24:13.236Z,22.13
2022-08-26T08:25:13.176Z,22.08
2022-08-26T08:26:13.168Z,22.04
2022-08-26T08:27:13.187Z,22.00
2022-08-26T08:28:13.173Z,21.98
2022-08-26T08:29:13.130Z,21.96
2022-08-26T08:30:13.651Z,21.99
2022-08-26T08:31:13.128Z,21.99
2022-08-26T08:32:13.107Z,22.02
2022-08-26T08:33:13.090Z,22.02
2022-08-26T08:34:13.096Z,21.99
2022-08-26T08:35:13.069Z,21.99
2022-08-26T08:36:13.079Z,21.99
2022-08-26T08:37:14.056Z,21.98
2022-08-26T08:38:13.044Z,21.96
2022-08-26T08:39:13.036Z,21.98
2022-08-26T08:40:13.085Z,22.00
2022-08-26T08:41:13.007Z,22.04
2022-08-26T08:42:13.036Z,22.06
2022-08-26T08:43:12.983Z,22.10
2022-08-26T08:44:13.025Z,22.13
2022-08-26T08:45:12.963Z,22.14
2022-08-26T08:46:13.031Z,22.14
2022-08-26T08:47:12.953Z,22.15
2022-08-26T08:48:12.944Z,22.17
2022-08-26T08:49:12.913Z,22.18
2022-08-26T08:50:12.904Z,22.22
2022-08-26T08:51:12.895Z,22.22
2022-08-26T08:52:12.917Z,22.25
2022-08-26T08:53:12.865Z,22.26
2022-08-26T08:54:12.887Z,22.23
2022-08-26T08:55:16.084Z,22.18
2022-08-26T08:56:13.835Z,22.15
2022-08-26T08:57:12.833Z,22.11
2022-08-26T08:58:12.840Z,22.08
2022-08-26T08:59:12.798Z,22.08
2022-08-26T09:00:12.805Z,22.07
2022-08-26T09:01:12.828Z,22.04
2022-08-26T09:02:12.837Z,22.04
2022-08-26T09:03:12.783Z,22.04
2022-08-26T09:04:12.759Z,22.06
2022-08-26T09:05:15.074Z,22.06
2022-08-26T09:06:12.740Z,22.00
2022-08-26T09:07:12.742Z,22.04
2022-08-26T09:08:12.795Z,22.06
2022-08-26T09:09:12.680Z,22.07
2022-08-26T09:10:12.673Z,22.08
2022-08-26T09:11:12.690Z,22.08
2022-08-26T09:12:12.660Z,22.08
2022-08-26T09:13:16.369Z,22.10
2022-08-26T09:14:12.641Z,22.10
2022-08-26T09:15:12.622Z,22.10
2022-08-26T09:16:12.634Z,22.14
2022-08-26T09:17:12.657Z,22.17
2022-08-26T09:18:12.626Z,22.25
2022-08-26T09:19:12.643Z,22.29
2022-08-26T09:20:12.567Z,22.35
2022-08-26T09:21:12.562Z,22.43
2022-08-26T09:22:12.554Z,22.50
2022-08-26T09:23:12.539Z,22.54
2022-08-26T09:24:13.975Z,22.60
2022-08-26T09:25:12.523Z,22.63
2022-08-26T09:26:12.502Z,22.69
2022-08-26T09:27:12.494Z,22.72
2022-08-26T09:28:12.484Z,22.72
2022-08-26T09:29:12.494Z,22.73
2022-08-26T09:30:12.486Z,22.73
2022-08-26T09:31:12.513Z,22.73
2022-08-26T09:32:12.432Z,22.75
2022-08-26T09:33:12.770Z,22.76
2022-08-26T09:34:12.430Z,22.81
2022-08-26T09:35:13.422Z,22.80
2022-08-26T09:36:12.419Z,22.80
2022-08-26T09:37:12.382Z,22.78
2022-08-26T09:38:12.381Z,22.75
2022-08-26T09:39:12.384Z,22.75
2022-08-26T09:40:12.484Z,22.76
2022-08-26T09:41:12.364Z,22.80
2022-08-26T09:42:12.344Z,22.78
2022-08-26T09:43:12.339Z,22.80
2022-08-26T09:44:14.750Z,22.81
2022-08-26T09:45:12.294Z,22.85
2022-08-26T09:46:12.322Z,22.90
2022-08-26T09:47:12.277Z,22.96
2022-08-26T09:48:12.282Z,23.03
2022-08-26T09:49:13.266Z,23.05
2022-08-26T09:50:12.502Z,23.09
2022-08-26T09:51:12.250Z,23.12
2022-08-26T09:52:12.226Z,23.17
2022-08-26T09:53:12.950Z,23.20
2022-08-26T09:54:12.193Z,23.20
2022-08-26T09:55:13.188Z,23.21
2022-08-26T09:56:12.197Z,23.18
2022-08-26T09:57:12.157Z,23.18
2022-08-26T09:58:12.293Z,23.21
2022-08-26T09:59:12.146Z,23.21
2022-08-26T10:00:12.124Z,23.21
2022-08-26T10:01:12.144Z,23.17
2022-08-26T10:02:12.327Z,23.13
2022-08-26T10:03:12.359Z,23.08
2022-08-26T10:04:13.106Z,22.96
2022-08-26T10:05:12.082Z,22.90
2022-08-26T10:06:12.091Z,22.85
2022-08-26T10:07:12.052Z,22.81
2022-08-26T10:08:12.038Z,22.78
2022-08-26T10:09:12.023Z,22.72
2022-08-26T10:10:12.017Z,22.69
2022-08-26T10:11:12.011Z,22.65
2022-08-26T10:12:12.034Z,22.62
2022-08-26T10:13:11.985Z,22.62
2022-08-26T10:14:11.964Z,22.60
2022-08-26T10:15:12.009Z,22.60
2022-08-26T10:16:11.991Z,22.57
2022-08-26T10:17:11.967Z,22.54
2022-08-26T10:18:12.015Z,22.53
2022-08-26T10:19:11.939Z,22.57
2022-08-26T10:20:24.952Z,22.59
2022-08-26T10:21:12.920Z,22.62
2022-08-26T10:22:11.890Z,22.62
2022-08-26T10:23:11.868Z,22.65
2022-08-26T10:24:11.898Z,22.68
2022-08-26T10:25:11.889Z,22.73
2022-08-26T10:26:11.884Z,22.76
2022-08-26T10:27:11.829Z,22.80
2022-08-26T10:28:11.818Z,22.83
2022-08-26T10:29:11.840Z,22.88
2022-08-26T10:30:11.803Z,22.87
2022-08-26T10:31:11.780Z,22.81
2022-08-26T10:32:13.908Z,22.76
2022-08-26T10:33:11.792Z,22.72
2022-08-26T10:34:12.541Z,22.68
2022-08-26T10:35:11.751Z,22.66
2022-08-26T10:36:12.326Z,22.69
2022-08-26T10:37:14.443Z,22.70
2022-08-26T10:38:11.723Z,22.76
2022-08-26T10:39:11.768Z,22.76
2022-08-26T10:40:11.776Z,22.78
2022-08-26T10:41:11.695Z,22.80
2022-08-26T10:42:11.687Z,22.84
2022-08-26T10:43:11.760Z,22.85
2022-08-26T10:44:11.640Z,22.90
2022-08-26T10:45:14.867Z,22.91
2022-08-26T10:46:11.682Z,22.98
2022-08-26T10:47:11.646Z,23.03
2022-08-26T10:48:11.599Z,23.12
2022-08-26T10:49:11.643Z,23.21
2022-08-26T10:50:11.582Z,23.23
2022-08-26T10:51:11.589Z,23.23
2022-08-26T10:52:12.256Z,23.21
2022-08-26T10:53:11.610Z,23.20
2022-08-26T10:54:11.786Z,23.21
2022-08-26T10:55:11.543Z,23.18
2022-08-26T10:56:18.581Z,23.20
2022-08-26T10:57:12.510Z,23.23
2022-08-26T10:58:11.638Z,23.28
2022-08-26T10:59:12.411Z,23.36
2022-08-26T11:00:11.488Z,23.41
2022-08-26T11:01:11.547Z,23.46
2022-08-26T11:02:11.479Z,23.54
2022-08-26T11:03:21.954Z,23.59
2022-08-26T11:04:12.485Z,23.63
2022-08-26T11:05:11.439Z,23.69
2022-08-26T11:06:11.424Z,23.74
2022-08-26T11:07:11.415Z,23.76
2022-08-26T11:08:11.391Z,23.78
2022-08-26T11:09:11.464Z,23.83
2022-08-26T11:10:11.396Z,23.86
2022-08-26T11:11:11.357Z,23.88
2022-08-26T11:12:11.387Z,23.95
2022-08-26T11:13:11.327Z,23.99
2022-08-26T11:14:11.316Z,24.01
2022-08-26T11:15:11.356Z,24.03
2022-08-26T11:16:11.352Z,24.03
2022-08-26T11:17:11.318Z,24.03
2022-08-26T11:18:11.480Z,24.03
2022-08-26T11:19:11.294Z,24.10
2022-08-26T11:20:13.634Z,24.14
2022-08-26T11:21:11.258Z,24.17
2022-08-26T11:22:11.225Z,24.18
2022-08-26T11:23:11.220Z,24.08
2022-08-26T11:24:11.215Z,24.01
2022-08-26T11:25:11.509Z,23.92
2022-08-26T11:26:11.209Z,23.88
2022-08-26T11:27:12.196Z,23.88
2022-08-26T11:28:11.318Z,23.91
2022-08-26T11:29:12.201Z,23.95
2022-08-26T11:30:11.159Z,23.98
2022-08-26T11:31:11.194Z,24.01
2022-08-26T11:32:11.160Z,24.01
2022-08-26T11:33:11.457Z,23.99
2022-08-26T11:34:11.101Z,23.98
2022-08-26T11:35:11.094Z,23.98
2022-08-26T11:36:12.178Z,23.96
2022-08-26T11:37:11.106Z,23.96
2022-08-26T11:38:11.085Z,23.98
2022-08-26T11:39:11.055Z,23.99
2022-08-26T11:40:11.075Z,24.03
2022-08-26T11:41:11.045Z,24.08
2022-08-26T11:42:11.007Z,24.13
2022-08-26T11:43:11.021Z,24.23
2022-08-26T11:44:11.027Z,24.29
2022-08-26T11:45:10.980Z,24.33
2022-08-26T11:46:11.073Z,24.40
2022-08-26T11:47:11.419Z,24.43
2022-08-26T11:48:10.955Z,24.51
2022-08-26T11:49:10.937Z,24.54
2022-08-26T11:50:10.930Z,24.55
2022-08-26T11:51:10.942Z,24.51
2022-08-26T11:52:10.908Z,24.48
2022-08-26T11:53:10.932Z,24.50
2022-08-26T11:54:10.921Z,24.53
2022-08-26T11:55:10.899Z,24.55
2022-08-26T11:56:10.921Z,24.57
2022-08-26T11:57:11.951Z,24.61
2022-08-26T11:58:10.915Z,24.65
2022-08-26T11:59:10.825Z,24.70
2022-08-26T12:00:13.544Z,24.74
2022-08-26T12:01:11.542Z,24.76
2022-08-26T12:02:10.835Z,24.77
2022-08-26T12:03:11.047Z,24.81
2022-08-26T12:04:10.937Z,24.85
2022-08-26T12:05:10.778Z,24.89
2022-08-26T12:06:10.764Z,24.92
2022-08-26T12:07:10.773Z,24.95
2022-08-26T12:08:11.038Z,24.96
2022-08-26T12:09:10.759Z,24.92
2022-08-26T12:10:10.774Z,24.88
2022-08-26T12:11:10.698Z,24.85
2022-08-26T12:12:10.685Z,24.81
2022-08-26T12:13:10.698Z,24.81
2022-08-26T12:14:10.688Z,24.80
2022-08-26T12:15:10.659Z,24.80
2022-08-26T12:16:10.657Z,24.81
2022-08-26T12:17:10.654Z,24.84
2022-08-26T12:18:10.636Z,24.85
2022-08-26T12:19:10.639Z,24.89
2022-08-26T12:20:10.745Z,24.92
2022-08-26T12:21:10.592Z,24.96
2022-08-26T12:22:10.577Z,24.96
2022-08-26T12:23:10.576Z,24.99
2022-08-26T12:24:10.600Z,25.04
2022-08-26T12:25:10.549Z,25.07
2022-08-26T12:26:10.566Z,25.11
2022-08-26T12:27:10.537Z,25.13
2022-08-26T12:28:10.546Z,25.14
2022-08-26T12:29:20.017Z,25.14
2022-08-26T12:30:12.435Z,25.07
2022-08-26T12:31:10.514Z,25.01
2022-08-26T12:32:10.485Z,24.96
2022-08-26T12:33:22.999Z,24.86
2022-08-26T12:34:17.433Z,24.81
2022-08-26T12:35:11.462Z,24.80
2022-08-26T12:36:10.468Z,24.81
2022-08-26T12:37:10.422Z,24.84
2022-08-26T12:38:10.580Z,24.85
2022-08-26T12:39:10.414Z,24.91
2022-08-26T12:40:10.527Z,24.96
2022-08-26T12:41:10.407Z,25.01
2022-08-26T12:42:10.422Z,25.07
2022-08-26T12:43:10.386Z,25.10
2022-08-26T12:44:10.395Z,25.13
2022-08-26T12:45:10.331Z,25.17
2022-08-26T12:46:10.332Z,25.18
2022-08-26T12:47:10.314Z,25.22
2022-08-26T12:48:10.439Z,25.22
2022-08-26T12:49:10.312Z,25.25
2022-08-26T12:50:10.335Z,25.18
2022-08-26T12:51:10.263Z,25.13
2022-08-26T12:52:10.247Z,25.07